createdAt,value
2018-04-22T00:00:48.897Z,7.93
2018-04-22T00:03:17.101Z,5.30
2018-04-22T00:05:46.050Z,7.23
2018-04-22T00:08:14.225Z,5.80
2018-04-22T00:10:42.394Z,6.37
2018-04-22T00:13:10.561Z,6.73
2018-04-22T00:15:38.723Z,6.30
2018-04-22T00:18:06.890Z,6.67
2018-04-22T00:20:35.817Z,7.00
2018-04-22T00:23:03.989Z,7.20
2018-04-22T00:25:32.173Z,7.50
2018-04-22T00:28:00.368Z,7.17
2018-04-22T00:30:28.534Z,7.87
2018-04-22T00:32:56.712Z,5.90
2018-04-22T00:35:24.881Z,6.03
2018-04-22T00:37:53.065Z,6.23
2018-04-22T00:40:21.237Z,5.97
2018-04-22T00:42:49.398Z,6.13
2018-04-22T00:45:17.592Z,6.07
2018-04-22T00:47:45.760Z,5.83
2018-04-22T00:50:13.920Z,9.63
2018-04-22T00:52:42.090Z,8.27
2018-04-22T00:55:10.289Z,5.20
2018-04-22T00:57:38.464Z,6.43
2018-04-22T01:00:06.630Z,5.47
2018-04-22T01:02:34.795Z,5.10
2018-04-22T01:05:02.989Z,5.60
2018-04-22T01:07:31.152Z,4.70
2018-04-22T01:09:59.362Z,6.97
2018-04-22T01:12:28.309Z,6.10
2018-04-22T01:14:56.505Z,5.70
2018-04-22T01:17:24.681Z,5.60
2018-04-22T01:19:52.861Z,6.00
2018-04-22T01:22:21.018Z,7.67
2018-04-22T01:24:49.196Z,6.07
2018-04-22T01:27:17.396Z,5.63
2018-04-22T01:29:46.363Z,6.90
2018-04-22T01:32:14.531Z,6.10
2018-04-22T01:34:42.698Z,8.50
2018-04-22T01:37:10.865Z,7.77
2018-04-22T01:39:39.031Z,5.30
2018-04-22T01:42:07.197Z,10.23
2018-04-22T01:44:35.393Z,6.00
2018-04-22T01:47:03.568Z,6.80
2018-04-22T01:49:31.733Z,6.07
2018-04-22T01:51:59.893Z,6.83
2018-04-22T01:54:28.077Z,6.13
2018-04-22T01:56:56.278Z,8.73
2018-04-22T01:59:24.452Z,6.10
2018-04-22T02:01:52.624Z,7.40
2018-04-22T02:04:20.788Z,7.80
2018-04-22T02:06:48.959Z,5.43
2018-04-22T02:09:17.140Z,7.43
2018-04-22T02:11:45.337Z,5.83
2018-04-22T02:14:13.524Z,7.00
2018-04-22T02:16:41.690Z,6.93
2018-04-22T02:19:09.854Z,6.13
2018-04-22T02:21:38.044Z,6.90
2018-04-22T02:24:06.226Z,7.30
2018-04-22T02:26:35.170Z,5.90
2018-04-22T02:29:03.372Z,6.43
2018-04-22T02:31:31.549Z,7.87
2018-04-22T02:33:59.737Z,6.40
2018-04-22T02:36:27.921Z,7.40
2018-04-22T02:38:56.893Z,7.33
2018-04-22T02:41:25.066Z,8.73
2018-04-22T02:43:53.236Z,7.07
2018-04-22T02:46:21.421Z,5.93
2018-04-22T02:48:49.592Z,6.30
2018-04-22T02:51:17.774Z,9.63
2018-04-22T02:53:45.942Z,7.83
2018-04-22T02:56:14.903Z,7.80
2018-04-22T02:58:43.076Z,10.03
2018-04-22T03:01:11.244Z,7.83
2018-04-22T03:03:39.426Z,7.00
2018-04-22T03:06:07.598Z,6.90
2018-04-22T03:08:35.770Z,7.93
2018-04-22T03:11:03.945Z,8.87
2018-04-22T03:13:32.118Z,7.00
2018-04-22T03:16:00.297Z,7.00
2018-04-22T03:18:28.468Z,6.47
2018-04-22T03:20:56.654Z,6.57
2018-04-22T03:23:24.825Z,8.57
2018-04-22T03:25:52.989Z,6.83
2018-04-22T03:28:21.174Z,5.77
2018-04-22T03:30:49.345Z,5.97
2018-04-22T03:33:17.525Z,6.20
2018-04-22T03:35:45.694Z,7.20
2018-04-22T03:38:13.905Z,9.20
2018-04-22T03:40:42.065Z,6.83
2018-04-22T03:43:10.244Z,10.20
2018-04-22T03:45:38.412Z,7.03
2018-04-22T03:48:06.589Z,9.13
2018-04-22T03:50:34.766Z,7.90
2018-04-22T03:53:02.937Z,8.87
2018-04-22T03:55:31.100Z,8.17
2018-04-22T03:57:59.261Z,6.70
2018-04-22T04:00:27.434Z,9.77
2018-04-22T04:02:55.593Z,14.77
2018-04-22T04:05:23.753Z,6.87
2018-04-22T04:07:52.681Z,9.10
2018-04-22T04:10:20.849Z,7.63
2018-04-22T04:12:49.019Z,7.87
2018-04-22T04:15:17.195Z,10.50
2018-04-22T04:17:45.401Z,8.37
2018-04-22T04:20:31.384Z,8.50
2018-04-22T04:22:59.548Z,8.20
2018-04-22T04:25:46.629Z,9.17
2018-04-22T04:28:15.558Z,6.80
2018-04-22T04:30:43.725Z,8.13
2018-04-22T04:33:11.899Z,7.17
2018-04-22T04:35:40.078Z,8.77
2018-04-22T04:38:08.283Z,13.67
2018-04-22T04:40:36.445Z,7.77
2018-04-22T04:43:04.656Z,8.13
2018-04-22T04:45:33.586Z,6.97
2018-04-22T04:48:01.753Z,8.13
2018-04-22T04:50:29.975Z,8.70
2018-04-22T04:52:58.153Z,10.50
2018-04-22T04:55:26.321Z,9.23
2018-04-22T04:57:54.487Z,6.83
2018-04-22T05:00:22.661Z,7.93
2018-04-22T05:02:50.829Z,9.90
2018-04-22T05:05:18.989Z,8.07
2018-04-22T05:07:47.156Z,7.83
2018-04-22T05:10:15.332Z,8.43
2018-04-22T05:12:43.509Z,7.13
2018-04-22T05:15:11.686Z,7.10
2018-04-22T05:17:39.856Z,8.53
2018-04-22T05:20:08.033Z,6.67
2018-04-22T05:22:36.192Z,8.70
2018-04-22T05:25:04.361Z,7.70
2018-04-22T05:27:32.539Z,8.03
2018-04-22T05:30:00.701Z,6.87
2018-04-22T05:32:29.637Z,8.77
2018-04-22T05:34:58.084Z,6.70
2018-04-22T05:37:26.250Z,7.30
2018-04-22T05:39:55.185Z,11.60
2018-04-22T05:42:23.357Z,7.07
2018-04-22T05:44:51.529Z,11.30
2018-04-22T05:47:19.729Z,10.40
2018-04-22T05:49:47.897Z,7.57
2018-04-22T05:52:16.070Z,11.27
2018-04-22T05:54:44.265Z,9.20
2018-04-22T05:57:12.497Z,7.40
2018-04-22T05:59:40.669Z,8.20
2018-04-22T06:02:08.880Z,6.87
2018-04-22T06:04:37.069Z,10.50
2018-04-22T06:07:05.236Z,8.97
2018-04-22T06:09:33.415Z,9.40
2018-04-22T06:12:01.589Z,8.13
2018-04-22T06:14:29.772Z,6.97
2018-04-22T06:16:58.715Z,6.53
2018-04-22T06:19:26.884Z,7.37
2018-04-22T06:21:55.060Z,6.70
2018-04-22T06:24:23.237Z,7.20
2018-04-22T06:26:51.409Z,8.17
2018-04-22T06:29:19.581Z,7.20
2018-04-22T06:31:47.765Z,7.77
2018-04-22T06:34:15.937Z,8.70
2018-04-22T06:36:44.118Z,8.37
2018-04-22T06:39:12.298Z,8.23
2018-04-22T06:41:40.520Z,7.53
2018-04-22T06:44:09.451Z,7.33
2018-04-22T06:46:37.624Z,7.83
2018-04-22T06:49:05.802Z,8.47
2018-04-22T06:51:33.997Z,9.20
2018-04-22T06:54:02.164Z,7.03
2018-04-22T06:56:30.479Z,7.60
2018-04-22T06:58:59.429Z,6.70
2018-04-22T07:01:27.590Z,6.50
2018-04-22T07:03:55.872Z,8.80
2018-04-22T07:06:24.062Z,7.50
2018-04-22T07:08:52.240Z,7.30
2018-04-22T07:11:20.427Z,8.70
2018-04-22T07:13:48.589Z,9.30
2018-04-22T07:16:16.800Z,7.20
2018-04-22T07:18:45.745Z,8.70
2018-04-22T07:21:13.908Z,6.90
2018-04-22T07:23:42.079Z,8.40
2018-04-22T07:26:10.260Z,12.10
2018-04-22T07:28:38.425Z,7.90
2018-04-22T07:31:06.601Z,8.00
2018-04-22T07:33:34.776Z,10.13
2018-04-22T07:36:02.957Z,6.70
2018-04-22T07:38:31.151Z,7.13
2018-04-22T07:41:00.090Z,8.67
2018-04-22T07:43:29.020Z,8.50
2018-04-22T07:45:57.198Z,9.77
2018-04-22T07:48:25.397Z,7.60
2018-04-22T07:50:53.576Z,7.57
2018-04-22T07:53:21.753Z,6.70
2018-04-22T07:55:49.933Z,8.07
2018-04-22T07:58:18.106Z,8.30
2018-04-22T08:00:46.275Z,8.20
2018-04-22T08:03:14.436Z,7.63
2018-04-22T08:05:42.607Z,7.90
2018-04-22T08:08:10.782Z,7.60
2018-04-22T08:10:38.948Z,8.00
2018-04-22T08:13:07.120Z,8.47
2018-04-22T08:15:35.310Z,7.40
2018-04-22T08:18:03.491Z,12.00
2018-04-22T08:20:31.684Z,12.57
2018-04-22T08:22:59.923Z,8.47
2018-04-22T08:25:28.899Z,7.43
2018-04-22T08:27:57.077Z,12.17
2018-04-22T08:30:25.235Z,8.03
2018-04-22T08:32:53.396Z,8.77
2018-04-22T08:35:22.326Z,7.80
2018-04-22T08:37:50.492Z,10.80
2018-04-22T08:40:18.713Z,8.13
2018-04-22T08:42:46.881Z,9.37
2018-04-22T08:45:15.041Z,8.20
2018-04-22T08:47:43.213Z,7.50
2018-04-22T08:50:11.387Z,10.43
2018-04-22T08:52:39.560Z,9.77
2018-04-22T08:55:07.730Z,7.70
2018-04-22T08:57:35.893Z,8.57
2018-04-22T09:00:04.838Z,7.70
2018-04-22T09:02:33.001Z,8.20
2018-04-22T09:05:01.176Z,9.10
2018-04-22T09:07:29.355Z,10.03
2018-04-22T09:09:58.287Z,11.73
2018-04-22T09:12:27.232Z,8.63
2018-04-22T09:14:55.440Z,8.07
2018-04-22T09:17:23.619Z,8.27
2018-04-22T09:19:51.784Z,7.93
2018-04-22T09:22:19.961Z,8.83
2018-04-22T09:24:48.131Z,8.30
2018-04-22T09:27:16.305Z,9.13
2018-04-22T09:29:44.478Z,8.77
2018-04-22T09:32:12.646Z,9.83
2018-04-22T09:34:41.585Z,8.90
2018-04-22T09:37:09.760Z,10.73
2018-04-22T09:39:37.929Z,9.20
2018-04-22T09:42:06.129Z,9.33
2018-04-22T09:44:34.294Z,8.33
2018-04-22T09:47:02.457Z,8.67
2018-04-22T09:49:30.634Z,7.80
2018-04-22T09:51:58.811Z,10.37
2018-04-22T09:54:26.976Z,8.90
2018-04-22T09:56:55.915Z,8.00
2018-04-22T09:59:24.097Z,8.43
2018-04-22T10:01:52.346Z,8.90
2018-04-22T10:04:20.520Z,10.37
2018-04-22T10:06:48.691Z,8.07
2018-04-22T10:09:16.860Z,8.60
2018-04-22T10:11:45.024Z,12.27
2018-04-22T10:14:13.200Z,12.77
2018-04-22T10:16:41.373Z,9.40
2018-04-22T10:19:09.544Z,9.50
2018-04-22T10:21:37.719Z,9.93
2018-04-22T10:24:05.893Z,8.97
2018-04-22T10:26:34.104Z,10.10
2018-04-22T10:29:02.278Z,13.47
2018-04-22T10:31:30.441Z,8.40
2018-04-22T10:33:58.604Z,9.53
2018-04-22T10:36:26.777Z,9.33
2018-04-22T10:38:54.945Z,9.43
2018-04-22T10:41:23.112Z,10.23
2018-04-22T10:43:52.048Z,10.73
2018-04-22T10:46:20.233Z,8.63
2018-04-22T10:48:48.401Z,8.23
2018-04-22T10:51:16.574Z,8.53
2018-04-22T10:53:44.745Z,8.60
2018-04-22T10:56:12.917Z,9.00
2018-04-22T10:58:41.090Z,8.50
2018-04-22T11:01:09.262Z,9.30
2018-04-22T11:03:37.432Z,8.43
2018-04-22T11:06:05.609Z,10.43
2018-04-22T11:08:33.777Z,8.00
2018-04-22T11:11:01.970Z,8.17
2018-04-22T11:13:30.149Z,9.30
2018-04-22T11:15:58.349Z,9.13
2018-04-22T11:18:26.516Z,8.57
2018-04-22T11:20:54.692Z,8.50
2018-04-22T11:23:22.864Z,9.10
2018-04-22T11:25:51.041Z,8.00
2018-04-22T11:28:19.211Z,8.20
2018-04-22T11:30:47.397Z,8.33
2018-04-22T11:33:16.350Z,8.17
2018-04-22T11:35:44.549Z,9.23
2018-04-22T11:38:12.725Z,8.60
2018-04-22T11:40:40.910Z,11.13
2018-04-22T11:43:09.089Z,12.10
2018-04-22T11:45:37.260Z,8.50
2018-04-22T11:48:05.435Z,10.37
2018-04-22T11:50:33.600Z,9.17
2018-04-22T11:53:01.775Z,11.23
2018-04-22T11:55:29.945Z,8.03
2018-04-22T11:57:58.121Z,7.40
2018-04-22T12:00:26.333Z,8.20
2018-04-22T12:02:55.270Z,8.80
2018-04-22T12:05:23.479Z,8.00
2018-04-22T12:07:51.657Z,8.07
2018-04-22T12:10:20.598Z,10.07
2018-04-22T12:12:48.774Z,8.00
2018-04-22T12:15:16.958Z,7.87
2018-04-22T12:17:45.221Z,7.43
2018-04-22T12:20:13.431Z,7.40
2018-04-22T12:22:41.642Z,7.50
2018-04-22T12:25:10.593Z,8.63
2018-04-22T12:27:38.765Z,8.17
2018-04-22T12:30:06.996Z,7.13
2018-04-22T12:32:35.187Z,8.33
2018-04-22T12:35:03.367Z,7.80
2018-04-22T12:37:31.531Z,7.93
2018-04-22T12:39:59.712Z,7.40
2018-04-22T12:42:27.904Z,7.70
2018-04-22T12:44:56.086Z,8.63
2018-04-22T12:47:25.023Z,7.63
2018-04-22T12:49:53.962Z,8.57
2018-04-22T12:52:22.914Z,8.00
2018-04-22T12:54:51.888Z,7.50
2018-04-22T12:57:20.821Z,7.37
2018-04-22T12:59:48.996Z,7.80
2018-04-22T13:02:17.158Z,7.90
2018-04-22T13:04:45.326Z,6.83
2018-04-22T13:07:13.522Z,8.23
2018-04-22T13:09:41.746Z,7.40
2018-04-22T13:12:09.917Z,7.80
2018-04-22T13:14:38.104Z,7.10
2018-04-22T13:17:07.037Z,8.20
2018-04-22T13:19:35.206Z,8.23
2018-04-22T13:22:03.384Z,6.53
2018-04-22T13:24:31.552Z,8.33
2018-04-22T13:26:59.731Z,6.97
2018-04-22T13:29:27.907Z,8.27
2018-04-22T13:31:56.089Z,7.80
2018-04-22T13:34:24.271Z,7.37
2018-04-22T13:36:52.447Z,8.83
2018-04-22T13:39:20.612Z,7.47
2018-04-22T13:41:48.795Z,10.53
2018-04-22T13:44:16.962Z,7.80
2018-04-22T13:46:45.183Z,7.57
2018-04-22T13:49:13.357Z,8.00
2018-04-22T13:51:41.532Z,7.77
2018-04-22T13:54:09.701Z,7.67
2018-04-22T13:56:37.877Z,7.87
2018-04-22T13:59:06.207Z,7.70
2018-04-22T14:01:34.393Z,7.60
2018-04-22T14:04:02.584Z,7.40
2018-04-22T14:06:30.771Z,7.43
2018-04-22T14:08:58.937Z,7.77
2018-04-22T14:11:27.129Z,7.57
2018-04-22T14:13:55.303Z,8.30
2018-04-22T14:16:23.502Z,7.10
2018-04-22T14:18:52.443Z,8.73
2018-04-22T14:21:20.613Z,7.77
2018-04-22T14:23:48.787Z,7.23
2018-04-22T14:26:16.959Z,7.87
2018-04-22T14:28:45.146Z,11.70
2018-04-22T14:31:13.326Z,7.40
2018-04-22T14:33:41.572Z,8.33
2018-04-22T14:36:09.748Z,9.93
2018-04-22T14:38:37.923Z,7.70
2018-04-22T14:41:06.144Z,7.73
2018-04-22T14:43:34.328Z,7.30
2018-04-22T14:46:14.075Z,8.47
2018-04-22T14:49:01.138Z,9.63
2018-04-22T14:51:29.317Z,7.07
2018-04-22T14:53:57.494Z,8.10
2018-04-22T14:56:25.662Z,7.80
2018-04-22T14:58:53.833Z,7.40
2018-04-22T15:01:22.024Z,7.13
2018-04-22T15:03:50.199Z,8.63
2018-04-22T15:06:18.375Z,7.23
2018-04-22T15:08:46.546Z,8.23
2018-04-22T15:11:14.722Z,7.40
2018-04-22T15:13:42.930Z,7.83
2018-04-22T15:16:11.104Z,8.07
2018-04-22T15:18:40.048Z,10.57
2018-04-22T15:21:08.223Z,7.93
2018-04-22T15:23:36.414Z,9.63
2018-04-22T15:26:04.582Z,8.03
2018-04-22T15:28:32.747Z,7.27
2018-04-22T15:31:00.936Z,9.60
2018-04-22T15:33:29.109Z,11.83
2018-04-22T15:35:57.277Z,7.77
2018-04-22T15:38:25.482Z,9.73
2018-04-22T15:40:53.682Z,8.60
2018-04-22T15:43:22.616Z,9.40
2018-04-22T15:45:50.816Z,7.87
2018-04-22T15:48:19.096Z,7.53
2018-04-22T15:50:47.471Z,8.60
2018-04-22T15:53:15.741Z,8.40
2018-04-22T15:55:43.937Z,7.27
2018-04-22T15:58:13.528Z,7.90
2018-04-22T16:00:41.697Z,7.50
2018-04-22T16:03:09.917Z,7.53
2018-04-22T16:05:38.870Z,9.43
2018-04-22T16:08:07.049Z,7.20
2018-04-22T16:10:35.272Z,8.35
2018-04-22T16:13:03.503Z,8.60
2018-04-22T16:15:31.968Z,8.23
2018-04-22T16:18:00.214Z,12.30
2018-04-22T16:20:28.418Z,7.60
2018-04-22T16:22:56.593Z,11.93
2018-04-22T16:25:24.775Z,10.40
2018-04-22T16:27:53.003Z,7.27
2018-04-22T16:30:21.251Z,8.90
2018-04-22T16:32:49.526Z,7.70
2018-04-22T16:35:17.764Z,7.47
2018-04-22T16:37:45.932Z,8.27
2018-04-22T16:40:14.116Z,12.00
2018-04-22T16:42:42.308Z,6.90
2018-04-22T16:45:10.536Z,9.87
2018-04-22T16:47:38.713Z,8.57
2018-04-22T16:50:06.902Z,9.37
2018-04-22T16:52:35.107Z,8.47
2018-04-22T16:55:03.315Z,6.60
2018-04-22T16:57:32.272Z,6.90
2018-04-22T17:00:00.466Z,7.23
2018-04-22T17:02:28.689Z,7.00
2018-04-22T17:04:56.911Z,7.10
2018-04-22T17:07:25.103Z,7.13
2018-04-22T17:09:54.101Z,11.73
2018-04-22T17:12:23.138Z,9.73
2018-04-22T17:14:51.396Z,10.90
2018-04-22T17:17:19.690Z,8.33
2018-04-22T17:19:47.974Z,9.23
2018-04-22T17:22:16.184Z,7.13
2018-04-22T17:24:44.417Z,9.00
2018-04-22T17:27:12.613Z,9.37
2018-04-22T17:29:40.837Z,8.37
2018-04-22T17:32:09.783Z,8.23
2018-04-22T17:34:38.010Z,7.43
2018-04-22T17:37:07.053Z,8.17
2018-04-22T17:39:35.269Z,10.73
2018-04-22T17:42:04.246Z,9.20
2018-04-22T17:44:32.474Z,9.77
2018-04-22T17:47:00.673Z,11.17
2018-04-22T17:49:28.871Z,7.53
2018-04-22T17:51:57.095Z,10.23
2018-04-22T17:54:25.291Z,7.70
2018-04-22T17:56:53.494Z,9.63
2018-04-22T17:59:21.760Z,10.17
2018-04-22T18:01:50.054Z,10.70
2018-04-22T18:04:18.219Z,13.73
2018-04-22T18:06:46.399Z,8.70
2018-04-22T18:09:14.583Z,11.07
2018-04-22T18:11:43.569Z,8.77
2018-04-22T18:14:11.776Z,13.30
2018-04-22T18:16:39.981Z,10.83
2018-04-22T18:19:08.193Z,10.77
2018-04-22T18:21:37.324Z,10.47
2018-04-22T18:24:05.500Z,10.77
2018-04-22T18:26:34.800Z,11.23
2018-04-22T18:29:03.002Z,10.30
2018-04-22T18:31:31.179Z,19.07
2018-04-22T18:33:59.370Z,12.63
2018-04-22T18:36:27.556Z,11.23
2018-04-22T18:38:55.740Z,10.40
2018-04-22T18:41:23.917Z,10.87
2018-04-22T18:43:52.096Z,17.00
2018-04-22T18:46:20.277Z,13.17
2018-04-22T18:48:49.229Z,14.17
2018-04-22T18:51:17.434Z,11.70
2018-04-22T18:53:45.618Z,10.73
2018-04-22T18:56:14.579Z,12.20
2018-04-22T18:58:42.755Z,9.70
2018-04-22T19:01:10.936Z,13.17
2018-04-22T19:03:39.127Z,14.07
2018-04-22T19:06:07.303Z,16.23
2018-04-22T19:08:35.495Z,12.43
2018-04-22T19:11:04.434Z,11.77
2018-04-22T19:13:32.619Z,12.13
2018-04-22T19:16:00.789Z,9.80
2018-04-22T19:18:28.965Z,8.70
2018-04-22T19:20:57.923Z,9.03
2018-04-22T19:23:26.122Z,9.23
2018-04-22T19:25:54.303Z,10.10
2018-04-22T19:28:22.519Z,10.83
2018-04-22T19:30:50.708Z,9.73
2018-04-22T19:33:19.661Z,10.90
2018-04-22T19:35:47.845Z,9.33
2018-04-22T19:38:16.043Z,11.63
2018-04-22T19:40:44.985Z,12.30
2018-04-22T19:43:13.214Z,10.53
2018-04-22T19:45:41.401Z,11.37
2018-04-22T19:48:09.607Z,10.20
2018-04-22T19:50:37.818Z,11.03
2018-04-22T19:53:08.657Z,11.13
2018-04-22T19:55:36.842Z,9.60
2018-04-22T19:58:05.813Z,10.27
2018-04-22T20:00:39.927Z,9.60
2018-04-22T20:03:08.121Z,11.67
2018-04-22T20:05:37.074Z,9.70
2018-04-22T20:08:07.973Z,10.53
2018-04-22T20:10:37.311Z,17.90
2018-04-22T20:13:08.353Z,14.07
2018-04-22T20:15:36.631Z,13.60
2018-04-22T20:18:07.102Z,15.30
2018-04-22T20:20:36.061Z,16.80
2018-04-22T20:23:08.440Z,18.33
2018-04-22T20:25:36.833Z,12.23
2018-04-22T20:28:06.016Z,11.57
2018-04-22T20:30:34.189Z,11.87
2018-04-22T20:33:02.397Z,10.60
2018-04-22T20:35:31.360Z,10.83
2018-04-22T20:37:59.539Z,11.50
2018-04-22T20:40:27.723Z,11.90
2018-04-22T20:42:55.963Z,11.63
2018-04-22T20:45:24.169Z,21.60
2018-04-22T20:47:52.355Z,16.03
2018-04-22T20:50:20.533Z,11.20
2018-04-22T20:52:48.790Z,11.77
2018-04-22T20:55:17.005Z,11.40
2018-04-22T20:57:46.097Z,12.83
2018-04-22T21:00:15.083Z,17.83
2018-04-22T21:02:44.073Z,12.70
2018-04-22T21:05:13.043Z,14.10
2018-04-22T21:07:41.255Z,11.60
2018-04-22T21:10:10.240Z,12.43
2018-04-22T21:12:39.197Z,12.37
2018-04-22T21:15:07.377Z,13.33
2018-04-22T21:17:35.568Z,15.13
2018-04-22T21:20:03.757Z,11.67
2018-04-22T21:22:32.721Z,12.63
2018-04-22T21:25:00.925Z,11.67
2018-04-22T21:27:29.873Z,13.90
2018-04-22T21:29:58.062Z,12.20
2018-04-22T21:32:26.239Z,11.77
2018-04-22T21:34:54.423Z,11.47
2018-04-22T21:37:22.604Z,11.43
2018-04-22T21:39:50.786Z,11.10
2018-04-22T21:42:19.729Z,11.70
2018-04-22T21:44:47.911Z,11.50
2018-04-22T21:47:16.115Z,12.40
2018-04-22T21:49:44.305Z,12.23
2018-04-22T21:52:13.267Z,13.30
2018-04-22T21:54:41.439Z,12.47
2018-04-22T21:57:09.645Z,12.97
2018-04-22T21:59:38.601Z,12.93
2018-04-22T22:02:06.777Z,11.97
2018-04-22T22:04:34.988Z,11.70
2018-04-22T22:07:03.928Z,13.57
2018-04-22T22:09:32.101Z,15.30
2018-04-22T22:12:00.273Z,12.13
2018-04-22T22:14:28.462Z,11.70
2018-04-22T22:16:56.665Z,11.33
2018-04-22T22:19:24.847Z,10.77
2018-04-22T22:21:53.024Z,12.87
2018-04-22T22:24:21.215Z,12.47
2018-04-22T22:26:50.169Z,12.40
2018-04-22T22:29:18.345Z,12.00
2018-04-22T22:31:46.521Z,12.13
2018-04-22T22:34:14.710Z,12.70
2018-04-22T22:36:42.902Z,12.60
2018-04-22T22:39:11.838Z,11.07
2018-04-22T22:41:40.023Z,14.23
2018-04-22T22:44:08.216Z,13.63
2018-04-22T22:46:36.422Z,14.00
2018-04-22T22:49:05.389Z,15.57
2018-04-22T22:51:33.589Z,15.03
2018-04-22T22:54:02.560Z,11.37
2018-04-22T22:56:30.741Z,18.57
2018-04-22T22:58:58.921Z,13.93
2018-04-22T23:01:27.100Z,14.80
2018-04-22T23:03:56.042Z,12.80
2018-04-22T23:06:24.222Z,13.17
2018-04-22T23:08:52.451Z,15.63
2018-04-22T23:11:21.417Z,15.10
2018-04-22T23:13:49.658Z,13.10
2018-04-22T23:16:17.834Z,13.87
2018-04-22T23:18:46.020Z,13.43
2018-04-22T23:21:14.239Z,12.83
2018-04-22T23:23:43.243Z,12.70
2018-04-22T23:26:12.197Z,14.07
2018-04-22T23:28:40.389Z,13.97
2018-04-22T23:31:08.580Z,11.50
2018-04-22T23:33:37.550Z,13.03
2018-04-22T23:36:05.747Z,12.20
2018-04-22T23:38:34.714Z,12.43
2018-04-22T23:41:02.913Z,12.53
2018-04-22T23:43:31.890Z,11.97
2018-04-22T23:46:00.090Z,13.27
2018-04-22T23:48:29.039Z,12.47
2018-04-22T23:50:57.227Z,12.70
2018-04-22T23:53:25.404Z,12.30
2018-04-22T23:55:53.594Z,12.03
2018-04-22T23:58:22.538Z,13.57
